Hauptseite
METAR-TAF:

METAR-TAF

Flughäfen :

Las Vegas, Nevada, Vereinigte Staaten

Flughafen McCarran International

Breite: 36-04-44N, Länge: 115-09-19W, Höhe: 663 m

Beobachtung

Neuester Wetterbericht von vor 45 Minuten, um 15:56 UTC
Wind 3 kt aus Süd/Südwest
Temperatur 6°C
Luftfeuchtigkeit 33%
Luftdruck 1024 hPa
Sichtweite: 16.1 km
Aufgelockert bewölkt in der Höhe von 25000 ft

METAR: KLAS 181556Z 20003KT 10SM SCT250 06/M09 A3024 RMK AO2 SLP240 T00561089

Zeit: 08:41 (16:41 UTC)

Prognose

Neuester Wetterbericht von vor 2 Stunden und 0 Minuten, um 14:41 UTC
Gültige Prognose vom 18 um 15 UTC bis 19 um 18 UTC
Wind 5 kt aus unterschiedlichen Richtungen
Sichtweite: 10 km
Aufgelockert bewölkt in der Höhe von 25000 ft
Ab 19 um 0300 UTC
Wind 6 kt aus Südwest
Sichtweite: 10 km
Aufgelockert bewölkt in der Höhe von 25000 ft

TAF: KLAS 181441Z 1815/1918 VRB05KT P6SM SCT250 FM190300 22006KT P6SM SCT250

Wetterbeobachtungen und Prognosen von mehr als 4000 Flughäfen (METAR und TAF Bericht).

Die verfügbaren Stationen werden durch gelbe und rote Markierungen auf der Karte dargestellt.

Führen Sie die Maus auf sie, um den Namen der Station zu sehen.

Darauf klicken, um die Beobachtung von Wetterbeobachtungen und Prognosen zu sehen.

Um die Karte zu ändern : klicken Sie auf den grünen Tasten mit einem schwarzen Kreuz Zum Vergrößern, auf den grünen Button mit einem Gedankenstrich zu verkleinern, oder auf die grünen Pfeile für benachbarte Karten.


METAR-TAF: